sensor_id;sensor_type;location;lat;lon;timestamp;P1;durP1;ratioP1;P2;durP2;ratioP2
51467;SDS011;37545;45.302;-122.946;2023-06-14T00:00:06;3.92;;;0.68;;
51467;SDS011;37545;45.302;-122.946;2023-06-14T00:02:36;1.63;;;0.40;;
51467;SDS011;37545;45.302;-122.946;2023-06-14T00:05:04;1.50;;;0.60;;
51467;SDS011;37545;45.302;-122.946;2023-06-14T00:07:34;0.93;;;0.60;;
51467;SDS011;37545;45.302;-122.946;2023-06-14T00:10:06;1.42;;;0.65;;
51467;SDS011;37545;45.302;-122.946;2023-06-14T00:12:35;1.33;;;0.50;;
51467;SDS011;37545;45.302;-122.946;2023-06-14T00:15:04;1.08;;;0.50;;
51467;SDS011;37545;45.302;-122.946;2023-06-14T00:20:04;1.98;;;0.60;;
51467;SDS011;37545;45.302;-122.946;2023-06-14T00:22:34;0.60;;;0.50;;
51467;SDS011;37545;45.302;-122.946;2023-06-14T00:25:06;1.63;;;0.50;;
51467;SDS011;37545;45.302;-122.946;2023-06-14T00:27:35;2.87;;;0.57;;
51467;SDS011;37545;45.302;-122.946;2023-06-14T00:30:04;0.50;;;0.40;;
51467;SDS011;37545;45.302;-122.946;2023-06-14T00:32:33;2.05;;;0.40;;
51467;SDS011;37545;45.302;-122.946;2023-06-14T00:35:02;1.60;;;0.55;;
51467;SDS011;37545;45.302;-122.946;2023-06-14T00:37:31;2.70;;;0.65;;
51467;SDS011;37545;45.302;-122.946;2023-06-14T00:40:00;0.52;;;0.30;;
51467;SDS011;37545;45.302;-122.946;2023-06-14T00:42:31;0.55;;;0.40;;
51467;SDS011;37545;45.302;-122.946;2023-06-14T00:45:00;1.85;;;0.40;;
51467;SDS011;37545;45.302;-122.946;2023-06-14T00:47:29;0.77;;;0.50;;
51467;SDS011;37545;45.302;-122.946;2023-06-14T00:49:57;1.48;;;0.50;;
51467;SDS011;37545;45.302;-122.946;2023-06-14T00:52:27;0.82;;;0.40;;
51467;SDS011;37545;45.302;-122.946;2023-06-14T00:54:58;2.75;;;0.65;;
51467;SDS011;37545;45.302;-122.946;2023-06-14T00:57:26;2.05;;;0.52;;
51467;SDS011;37545;45.302;-122.946;2023-06-14T00:59:57;0.70;;;0.32;;
51467;SDS011;37545;45.302;-122.946;2023-06-14T01:02:25;4.07;;;0.95;;
51467;SDS011;37545;45.302;-122.946;2023-06-14T01:04:54;1.85;;;0.55;;
51467;SDS011;37545;45.302;-122.946;2023-06-14T01:07:25;1.40;;;0.47;;
51467;SDS011;37545;45.302;-122.946;2023-06-14T01:10:04;1.75;;;0.60;;
51467;SDS011;37545;45.302;-122.946;2023-06-14T01:12:48;3.15;;;0.57;;
51467;SDS011;37545;45.302;-122.946;2023-06-14T01:15:26;3.13;;;0.50;;
51467;SDS011;37545;45.302;-122.946;2023-06-14T01:17:56;1.23;;;0.40;;
51467;SDS011;37545;45.302;-122.946;2023-06-14T01:22:58;0.50;;;0.40;;
51467;SDS011;37545;45.302;-122.946;2023-06-14T01:25:27;1.55;;;0.40;;
51467;SDS011;37545;45.302;-122.946;2023-06-14T01:27:57;0.90;;;0.30;;
51467;SDS011;37545;45.302;-122.946;2023-06-14T01:30:36;0.90;;;0.40;;
51467;SDS011;37545;45.302;-122.946;2023-06-14T01:33:08;0.50;;;0.40;;
51467;SDS011;37545;45.302;-122.946;2023-06-14T01:35:37;0.75;;;0.38;;
51467;SDS011;37545;45.302;-122.946;2023-06-14T01:38:08;0.75;;;0.40;;
51467;SDS011;37545;45.302;-122.946;2023-06-14T01:40:37;1.10;;;0.57;;
51467;SDS011;37545;45.302;-122.946;2023-06-14T01:43:07;1.30;;;0.43;;
51467;SDS011;37545;45.302;-122.946;2023-06-14T01:45:37;0.75;;;0.50;;
51467;SDS011;37545;45.302;-122.946;2023-06-14T01:48:07;0.80;;;0.40;;
51467;SDS011;37545;45.302;-122.946;2023-06-14T01:50:36;3.15;;;0.82;;
51467;SDS011;37545;45.302;-122.946;2023-06-14T01:53:06;0.82;;;0.60;;
51467;SDS011;37545;45.302;-122.946;2023-06-14T01:55:37;3.08;;;0.38;;
51467;SDS011;37545;45.302;-122.946;2023-06-14T01:58:08;0.73;;;0.52;;
51467;SDS011;37545;45.302;-122.946;2023-06-14T02:00:37;1.13;;;0.47;;
51467;SDS011;37545;45.302;-122.946;2023-06-14T02:03:06;2.17;;;0.73;;
51467;SDS011;37545;45.302;-122.946;2023-06-14T02:05:34;1.42;;;0.40;;
51467;SDS011;37545;45.302;-122.946;2023-06-14T02:08:04;0.52;;;0.35;;
51467;SDS011;37545;45.302;-122.946;2023-06-14T02:10:34;0.75;;;0.50;;
51467;SDS011;37545;45.302;-122.946;2023-06-14T02:13:03;0.82;;;0.50;;
51467;SDS011;37545;45.302;-122.946;2023-06-14T02:15:31;0.85;;;0.32;;
51467;SDS011;37545;45.302;-122.946;2023-06-14T02:18:01;1.80;;;0.50;;
51467;SDS011;37545;45.302;-122.946;2023-06-14T02:20:32;2.65;;;0.40;;
51467;SDS011;37545;45.302;-122.946;2023-06-14T02:23:01;1.88;;;0.57;;
51467;SDS011;37545;45.302;-122.946;2023-06-14T02:25:30;2.85;;;0.40;;
51467;SDS011;37545;45.302;-122.946;2023-06-14T02:28:00;2.05;;;0.55;;
51467;SDS011;37545;45.302;-122.946;2023-06-14T02:30:29;1.27;;;0.50;;
51467;SDS011;37545;45.302;-122.946;2023-06-14T02:32:58;1.83;;;0.50;;
51467;SDS011;37545;45.302;-122.946;2023-06-14T02:35:27;1.42;;;0.50;;
51467;SDS011;37545;45.302;-122.946;2023-06-14T02:37:56;0.90;;;0.50;;
51467;SDS011;37545;45.302;-122.946;2023-06-14T02:40:24;2.25;;;0.60;;
51467;SDS011;37545;45.302;-122.946;2023-06-14T02:42:53;1.00;;;0.50;;
51467;SDS011;37545;45.302;-122.946;2023-06-14T02:45:23;0.80;;;0.57;;
51467;SDS011;37545;45.302;-122.946;2023-06-14T02:47:52;1.05;;;0.50;;
51467;SDS011;37545;45.302;-122.946;2023-06-14T02:50:21;0.77;;;0.40;;
51467;SDS011;37545;45.302;-122.946;2023-06-14T02:52:49;0.65;;;0.60;;
51467;SDS011;37545;45.302;-122.946;2023-06-14T02:55:18;1.00;;;0.50;;
51467;SDS011;37545;45.302;-122.946;2023-06-14T02:57:46;1.65;;;0.50;;
51467;SDS011;37545;45.302;-122.946;2023-06-14T03:00:15;0.80;;;0.50;;
51467;SDS011;37545;45.302;-122.946;2023-06-14T03:02:46;1.20;;;0.60;;
51467;SDS011;37545;45.302;-122.946;2023-06-14T03:05:17;1.80;;;0.80;;
51467;SDS011;37545;45.302;-122.946;2023-06-14T03:07:47;2.40;;;0.90;;
51467;SDS011;37545;45.302;-122.946;2023-06-14T03:10:16;3.20;;;0.90;;
51467;SDS011;37545;45.302;-122.946;2023-06-14T03:12:44;2.00;;;0.70;;
51467;SDS011;37545;45.302;-122.946;2023-06-14T03:15:13;1.75;;;0.60;;
51467;SDS011;37545;45.302;-122.946;2023-06-14T03:17:43;2.65;;;0.95;;
51467;SDS011;37545;45.302;-122.946;2023-06-14T03:20:16;1.92;;;0.82;;
51467;SDS011;37545;45.302;-122.946;2023-06-14T03:22:45;3.10;;;1.95;;
51467;SDS011;37545;45.302;-122.946;2023-06-14T03:25:14;4.72;;;2.45;;
51467;SDS011;37545;45.302;-122.946;2023-06-14T03:27:44;1.63;;;0.85;;
51467;SDS011;37545;45.302;-122.946;2023-06-14T03:30:15;1.40;;;0.80;;
51467;SDS011;37545;45.302;-122.946;2023-06-14T03:32:44;2.70;;;1.85;;
51467;SDS011;37545;45.302;-122.946;2023-06-14T03:35:13;5.97;;;1.90;;
51467;SDS011;37545;45.302;-122.946;2023-06-14T03:37:44;3.40;;;2.25;;
51467;SDS011;37545;45.302;-122.946;2023-06-14T03:40:15;2.35;;;1.00;;
51467;SDS011;37545;45.302;-122.946;2023-06-14T03:42:45;2.50;;;0.80;;
51467;SDS011;37545;45.302;-122.946;2023-06-14T03:45:14;3.97;;;0.90;;
51467;SDS011;37545;45.302;-122.946;2023-06-14T03:47:42;2.33;;;0.80;;
51467;SDS011;37545;45.302;-122.946;2023-06-14T03:50:18;2.72;;;0.85;;
51467;SDS011;37545;45.302;-122.946;2023-06-14T03:52:56;4.82;;;0.98;;
51467;SDS011;37545;45.302;-122.946;2023-06-14T03:55:24;3.20;;;1.13;;
51467;SDS011;37545;45.302;-122.946;2023-06-14T03:57:53;1.77;;;0.60;;
51467;SDS011;37545;45.302;-122.946;2023-06-14T04:00:24;1.45;;;0.50;;
51467;SDS011;37545;45.302;-122.946;2023-06-14T04:02:52;1.27;;;0.70;;
51467;SDS011;37545;45.302;-122.946;2023-06-14T04:05:21;4.18;;;1.05;;
51467;SDS011;37545;45.302;-122.946;2023-06-14T04:07:52;2.00;;;0.70;;
51467;SDS011;37545;45.302;-122.946;2023-06-14T04:10:24;2.03;;;0.47;;
51467;SDS011;37545;45.302;-122.946;2023-06-14T04:12:53;1.58;;;0.63;;
51467;SDS011;37545;45.302;-122.946;2023-06-14T04:15:21;1.60;;;0.50;;
51467;SDS011;37545;45.302;-122.946;2023-06-14T04:17:50;1.00;;;0.65;;
51467;SDS011;37545;45.302;-122.946;2023-06-14T04:22:51;1.83;;;0.40;;
51467;SDS011;37545;45.302;-122.946;2023-06-14T04:25:24;2.17;;;0.73;;
51467;SDS011;37545;45.302;-122.946;2023-06-14T04:27:56;2.30;;;0.55;;
51467;SDS011;37545;45.302;-122.946;2023-06-14T04:30:24;2.80;;;0.68;;
51467;SDS011;37545;45.302;-122.946;2023-06-14T04:32:57;5.85;;;1.23;;
51467;SDS011;37545;45.302;-122.946;2023-06-14T04:35:25;2.33;;;0.55;;
51467;SDS011;37545;45.302;-122.946;2023-06-14T04:37:54;1.73;;;0.65;;
51467;SDS011;37545;45.302;-122.946;2023-06-14T04:40:27;2.47;;;0.88;;
51467;SDS011;37545;45.302;-122.946;2023-06-14T04:42:55;0.82;;;0.45;;
51467;SDS011;37545;45.302;-122.946;2023-06-14T04:45:24;3.40;;;0.63;;
51467;SDS011;37545;45.302;-122.946;2023-06-14T04:47:58;1.25;;;0.57;;
51467;SDS011;37545;45.302;-122.946;2023-06-14T04:50:27;3.30;;;0.40;;
51467;SDS011;37545;45.302;-122.946;2023-06-14T04:52:58;1.43;;;0.53;;
51467;SDS011;37545;45.302;-122.946;2023-06-14T04:55:28;1.83;;;0.60;;
51467;SDS011;37545;45.302;-122.946;2023-06-14T04:57:58;3.05;;;0.85;;
51467;SDS011;37545;45.302;-122.946;2023-06-14T05:00:26;2.70;;;0.55;;
51467;SDS011;37545;45.302;-122.946;2023-06-14T05:02:56;3.92;;;0.75;;
51467;SDS011;37545;45.302;-122.946;2023-06-14T05:05:24;2.40;;;0.75;;
51467;SDS011;37545;45.302;-122.946;2023-06-14T05:07:53;5.30;;;0.80;;
51467;SDS011;37545;45.302;-122.946;2023-06-14T05:10:21;3.95;;;0.70;;
51467;SDS011;37545;45.302;-122.946;2023-06-14T05:12:54;2.53;;;0.80;;
51467;SDS011;37545;45.302;-122.946;2023-06-14T05:15:23;1.33;;;0.50;;
51467;SDS011;37545;45.302;-122.946;2023-06-14T05:17:52;4.03;;;0.93;;
51467;SDS011;37545;45.302;-122.946;2023-06-14T05:20:21;3.63;;;0.80;;
51467;SDS011;37545;45.302;-122.946;2023-06-14T05:22:52;2.20;;;0.82;;
51467;SDS011;37545;45.302;-122.946;2023-06-14T05:25:22;3.22;;;1.00;;
51467;SDS011;37545;45.302;-122.946;2023-06-14T05:27:52;2.20;;;0.73;;
51467;SDS011;37545;45.302;-122.946;2023-06-14T05:30:21;5.00;;;0.70;;
51467;SDS011;37545;45.302;-122.946;2023-06-14T05:32:49;6.25;;;1.20;;
51467;SDS011;37545;45.302;-122.946;2023-06-14T05:35:18;6.85;;;1.25;;
51467;SDS011;37545;45.302;-122.946;2023-06-14T05:37:47;4.53;;;1.05;;
51467;SDS011;37545;45.302;-122.946;2023-06-14T05:40:16;3.80;;;1.15;;
51467;SDS011;37545;45.302;-122.946;2023-06-14T05:42:45;5.88;;;0.88;;
51467;SDS011;37545;45.302;-122.946;2023-06-14T05:45:15;5.35;;;0.88;;
51467;SDS011;37545;45.302;-122.946;2023-06-14T05:47:44;2.15;;;0.73;;
51467;SDS011;37545;45.302;-122.946;2023-06-14T05:50:13;5.43;;;1.35;;
51467;SDS011;37545;45.302;-122.946;2023-06-14T05:52:41;2.08;;;1.10;;
51467;SDS011;37545;45.302;-122.946;2023-06-14T05:55:10;4.60;;;1.10;;
51467;SDS011;37545;45.302;-122.946;2023-06-14T05:57:39;6.75;;;1.05;;
51467;SDS011;37545;45.302;-122.946;2023-06-14T06:00:08;5.13;;;1.33;;
51467;SDS011;37545;45.302;-122.946;2023-06-14T06:02:41;8.98;;;1.00;;
51467;SDS011;37545;45.302;-122.946;2023-06-14T06:05:10;10.85;;;1.23;;
51467;SDS011;37545;45.302;-122.946;2023-06-14T06:07:39;7.53;;;1.40;;
51467;SDS011;37545;45.302;-122.946;2023-06-14T06:10:09;4.47;;;1.52;;
51467;SDS011;37545;45.302;-122.946;2023-06-14T06:12:38;5.10;;;1.25;;
51467;SDS011;37545;45.302;-122.946;2023-06-14T06:15:08;4.65;;;1.05;;
51467;SDS011;37545;45.302;-122.946;2023-06-14T06:17:38;4.88;;;1.10;;
51467;SDS011;37545;45.302;-122.946;2023-06-14T06:20:09;9.32;;;1.30;;
51467;SDS011;37545;45.302;-122.946;2023-06-14T06:22:38;4.32;;;1.27;;
51467;SDS011;37545;45.302;-122.946;2023-06-14T06:25:07;3.88;;;1.15;;
51467;SDS011;37545;45.302;-122.946;2023-06-14T06:27:36;3.13;;;1.13;;
51467;SDS011;37545;45.302;-122.946;2023-06-14T06:30:06;9.65;;;1.30;;
51467;SDS011;37545;45.302;-122.946;2023-06-14T06:32:35;3.88;;;1.35;;
51467;SDS011;37545;45.302;-122.946;2023-06-14T06:35:06;4.97;;;1.00;;
51467;SDS011;37545;45.302;-122.946;2023-06-14T06:40:04;5.65;;;1.38;;
51467;SDS011;37545;45.302;-122.946;2023-06-14T06:42:34;13.48;;;1.80;;
51467;SDS011;37545;45.302;-122.946;2023-06-14T06:45:03;3.70;;;1.10;;
51467;SDS011;37545;45.302;-122.946;2023-06-14T06:47:32;5.22;;;1.10;;
51467;SDS011;37545;45.302;-122.946;2023-06-14T06:50:00;4.85;;;0.80;;
51467;SDS011;37545;45.302;-122.946;2023-06-14T06:52:31;4.30;;;1.40;;
51467;SDS011;37545;45.302;-122.946;2023-06-14T06:54:59;4.43;;;1.83;;
51467;SDS011;37545;45.302;-122.946;2023-06-14T06:57:28;7.65;;;1.08;;
51467;SDS011;37545;45.302;-122.946;2023-06-14T06:59:57;7.32;;;1.45;;
51467;SDS011;37545;45.302;-122.946;2023-06-14T07:02:26;3.55;;;1.48;;
51467;SDS011;37545;45.302;-122.946;2023-06-14T07:04:56;7.68;;;1.83;;
51467;SDS011;37545;45.302;-122.946;2023-06-14T07:07:24;6.35;;;1.50;;
51467;SDS011;37545;45.302;-122.946;2023-06-14T07:09:55;4.40;;;0.75;;
51467;SDS011;37545;45.302;-122.946;2023-06-14T07:12:25;4.57;;;1.07;;
51467;SDS011;37545;45.302;-122.946;2023-06-14T07:14:53;6.30;;;1.23;;
51467;SDS011;37545;45.302;-122.946;2023-06-14T07:17:22;6.25;;;1.33;;
51467;SDS011;37545;45.302;-122.946;2023-06-14T07:19:51;4.45;;;0.93;;
51467;SDS011;37545;45.302;-122.946;2023-06-14T07:22:19;3.50;;;1.35;;
51467;SDS011;37545;45.302;-122.946;2023-06-14T07:24:48;5.43;;;1.15;;
51467;SDS011;37545;45.302;-122.946;2023-06-14T07:27:18;2.60;;;1.05;;
51467;SDS011;37545;45.302;-122.946;2023-06-14T07:29:47;3.92;;;1.20;;
51467;SDS011;37545;45.302;-122.946;2023-06-14T07:32:18;4.70;;;1.20;;
51467;SDS011;37545;45.302;-122.946;2023-06-14T07:34:47;4.65;;;1.55;;
51467;SDS011;37545;45.302;-122.946;2023-06-14T07:37:15;9.00;;;1.33;;
51467;SDS011;37545;45.302;-122.946;2023-06-14T07:39:44;4.50;;;1.05;;
51467;SDS011;37545;45.302;-122.946;2023-06-14T07:42:13;8.07;;;1.65;;
51467;SDS011;37545;45.302;-122.946;2023-06-14T07:44:43;4.35;;;1.38;;
51467;SDS011;37545;45.302;-122.946;2023-06-14T07:47:12;8.57;;;1.83;;
51467;SDS011;37545;45.302;-122.946;2023-06-14T07:49:41;9.90;;;2.50;;
51467;SDS011;37545;45.302;-122.946;2023-06-14T07:52:09;3.85;;;1.10;;
51467;SDS011;37545;45.302;-122.946;2023-06-14T07:54:39;7.90;;;1.40;;
51467;SDS011;37545;45.302;-122.946;2023-06-14T07:57:08;5.22;;;1.55;;
51467;SDS011;37545;45.302;-122.946;2023-06-14T07:59:37;3.83;;;1.20;;
51467;SDS011;37545;45.302;-122.946;2023-06-14T08:02:07;10.18;;;1.83;;
51467;SDS011;37545;45.302;-122.946;2023-06-14T08:04:35;12.00;;;1.75;;
51467;SDS011;37545;45.302;-122.946;2023-06-14T08:07:04;4.88;;;0.98;;
51467;SDS011;37545;45.302;-122.946;2023-06-14T08:09:33;6.28;;;1.70;;
51467;SDS011;37545;45.302;-122.946;2023-06-14T08:12:03;5.45;;;1.58;;
51467;SDS011;37545;45.302;-122.946;2023-06-14T08:14:33;3.17;;;1.17;;
51467;SDS011;37545;45.302;-122.946;2023-06-14T08:17:01;6.68;;;1.27;;
51467;SDS011;37545;45.302;-122.946;2023-06-14T08:19:41;5.78;;;1.58;;
51467;SDS011;37545;45.302;-122.946;2023-06-14T08:22:09;5.35;;;1.20;;
51467;SDS011;37545;45.302;-122.946;2023-06-14T08:24:38;10.25;;;1.85;;
51467;SDS011;37545;45.302;-122.946;2023-06-14T08:27:08;10.93;;;1.95;;
51467;SDS011;37545;45.302;-122.946;2023-06-14T08:29:36;4.97;;;1.58;;
51467;SDS011;37545;45.302;-122.946;2023-06-14T08:32:06;8.82;;;1.90;;
51467;SDS011;37545;45.302;-122.946;2023-06-14T08:34:37;9.70;;;2.13;;
51467;SDS011;37545;45.302;-122.946;2023-06-14T08:37:06;4.28;;;1.00;;
51467;SDS011;37545;45.302;-122.946;2023-06-14T08:39:35;8.23;;;1.42;;
51467;SDS011;37545;45.302;-122.946;2023-06-14T08:42:06;6.95;;;1.40;;
51467;SDS011;37545;45.302;-122.946;2023-06-14T08:44:36;6.63;;;1.13;;
51467;SDS011;37545;45.302;-122.946;2023-06-14T08:47:05;4.60;;;1.65;;
51467;SDS011;37545;45.302;-122.946;2023-06-14T08:49:38;8.10;;;1.67;;
51467;SDS011;37545;45.302;-122.946;2023-06-14T08:52:10;4.22;;;1.70;;
51467;SDS011;37545;45.302;-122.946;2023-06-14T08:54:41;5.32;;;1.17;;
51467;SDS011;37545;45.302;-122.946;2023-06-14T08:57:10;7.20;;;1.15;;
51467;SDS011;37545;45.302;-122.946;2023-06-14T08:59:43;9.55;;;1.83;;
51467;SDS011;37545;45.302;-122.946;2023-06-14T09:02:18;8.65;;;2.03;;
51467;SDS011;37545;45.302;-122.946;2023-06-14T09:04:49;13.40;;;1.92;;
51467;SDS011;37545;45.302;-122.946;2023-06-14T09:07:20;8.23;;;2.28;;
51467;SDS011;37545;45.302;-122.946;2023-06-14T09:09:49;6.00;;;1.45;;
51467;SDS011;37545;45.302;-122.946;2023-06-14T09:12:34;6.38;;;1.45;;
51467;SDS011;37545;45.302;-122.946;2023-06-14T09:15:05;10.07;;;1.50;;
51467;SDS011;37545;45.302;-122.946;2023-06-14T09:17:34;4.38;;;1.30;;
51467;SDS011;37545;45.302;-122.946;2023-06-14T09:20:06;3.70;;;1.42;;
51467;SDS011;37545;45.302;-122.946;2023-06-14T09:22:36;4.35;;;1.40;;
51467;SDS011;37545;45.302;-122.946;2023-06-14T09:25:05;4.90;;;1.45;;
51467;SDS011;37545;45.302;-122.946;2023-06-14T09:27:35;4.68;;;1.42;;
51467;SDS011;37545;45.302;-122.946;2023-06-14T09:30:05;6.10;;;1.15;;
51467;SDS011;37545;45.302;-122.946;2023-06-14T09:32:36;3.72;;;1.33;;
51467;SDS011;37545;45.302;-122.946;2023-06-14T09:35:08;6.65;;;2.40;;
51467;SDS011;37545;45.302;-122.946;2023-06-14T09:37:37;4.65;;;1.35;;
51467;SDS011;37545;45.302;-122.946;2023-06-14T09:40:06;4.32;;;1.65;;
51467;SDS011;37545;45.302;-122.946;2023-06-14T09:42:35;5.63;;;1.58;;
51467;SDS011;37545;45.302;-122.946;2023-06-14T09:45:06;5.32;;;1.50;;
51467;SDS011;37545;45.302;-122.946;2023-06-14T09:47:39;4.10;;;1.23;;
51467;SDS011;37545;45.302;-122.946;2023-06-14T09:50:10;9.50;;;1.80;;
51467;SDS011;37545;45.302;-122.946;2023-06-14T09:52:39;3.90;;;1.17;;
51467;SDS011;37545;45.302;-122.946;2023-06-14T09:55:13;6.80;;;2.00;;
51467;SDS011;37545;45.302;-122.946;2023-06-14T09:57:42;4.07;;;1.03;;
51467;SDS011;37545;45.302;-122.946;2023-06-14T10:00:15;8.55;;;1.70;;
51467;SDS011;37545;45.302;-122.946;2023-06-14T10:02:51;5.45;;;1.88;;
51467;SDS011;37545;45.302;-122.946;2023-06-14T10:05:28;4.07;;;1.30;;
51467;SDS011;37545;45.302;-122.946;2023-06-14T10:07:59;3.08;;;1.15;;
51467;SDS011;37545;45.302;-122.946;2023-06-14T10:10:31;2.80;;;1.38;;
51467;SDS011;37545;45.302;-122.946;2023-06-14T10:13:00;8.07;;;1.52;;
51467;SDS011;37545;45.302;-122.946;2023-06-14T10:15:30;5.22;;;1.17;;
51467;SDS011;37545;45.302;-122.946;2023-06-14T10:18:08;7.30;;;1.70;;
51467;SDS011;37545;45.302;-122.946;2023-06-14T10:20:50;6.00;;;1.75;;
51467;SDS011;37545;45.302;-122.946;2023-06-14T10:23:26;10.93;;;1.83;;
51467;SDS011;37545;45.302;-122.946;2023-06-14T10:25:57;5.32;;;1.33;;
51467;SDS011;37545;45.302;-122.946;2023-06-14T10:28:26;3.25;;;1.50;;
51467;SDS011;37545;45.302;-122.946;2023-06-14T10:31:05;7.30;;;1.08;;
51467;SDS011;37545;45.302;-122.946;2023-06-14T10:33:35;9.52;;;1.67;;
51467;SDS011;37545;45.302;-122.946;2023-06-14T10:36:25;6.67;;;1.43;;
51467;SDS011;37545;45.302;-122.946;2023-06-14T10:38:59;6.80;;;1.48;;
51467;SDS011;37545;45.302;-122.946;2023-06-14T10:41:32;5.75;;;1.40;;
51467;SDS011;37545;45.302;-122.946;2023-06-14T10:47:26;5.80;;;1.65;;
51467;SDS011;37545;45.302;-122.946;2023-06-14T10:49:57;3.67;;;1.58;;
51467;SDS011;37545;45.302;-122.946;2023-06-14T10:52:34;5.80;;;1.75;;
51467;SDS011;37545;45.302;-122.946;2023-06-14T10:55:07;4.82;;;1.73;;
51467;SDS011;37545;45.302;-122.946;2023-06-14T10:57:41;4.68;;;1.25;;
51467;SDS011;37545;45.302;-122.946;2023-06-14T11:00:17;5.78;;;1.67;;
51467;SDS011;37545;45.302;-122.946;2023-06-14T11:05:57;8.55;;;1.67;;
51467;SDS011;37545;45.302;-122.946;2023-06-14T11:08:32;5.32;;;1.73;;
51467;SDS011;37545;45.302;-122.946;2023-06-14T11:11:19;4.15;;;1.35;;
51467;SDS011;37545;45.302;-122.946;2023-06-14T11:13:51;5.53;;;1.70;;
51467;SDS011;37545;45.302;-122.946;2023-06-14T11:16:19;5.38;;;1.58;;
51467;SDS011;37545;45.302;-122.946;2023-06-14T11:18:53;6.85;;;1.73;;
51467;SDS011;37545;45.302;-122.946;2023-06-14T11:21:22;4.25;;;1.55;;
51467;SDS011;37545;45.302;-122.946;2023-06-14T11:23:58;4.13;;;1.33;;
51467;SDS011;37545;45.302;-122.946;2023-06-14T11:26:27;10.30;;;1.70;;
51467;SDS011;37545;45.302;-122.946;2023-06-14T11:29:00;6.22;;;1.98;;
51467;SDS011;37545;45.302;-122.946;2023-06-14T11:31:47;5.35;;;1.65;;
51467;SDS011;37545;45.302;-122.946;2023-06-14T11:34:16;6.95;;;1.38;;
51467;SDS011;37545;45.302;-122.946;2023-06-14T11:36:45;5.82;;;1.90;;
51467;SDS011;37545;45.302;-122.946;2023-06-14T11:39:15;4.85;;;1.67;;
51467;SDS011;37545;45.302;-122.946;2023-06-14T11:41:44;7.10;;;1.98;;
51467;SDS011;37545;45.302;-122.946;2023-06-14T11:44:13;6.75;;;1.73;;
51467;SDS011;37545;45.302;-122.946;2023-06-14T11:46:42;6.68;;;2.05;;
51467;SDS011;37545;45.302;-122.946;2023-06-14T11:49:10;8.13;;;1.60;;
51467;SDS011;37545;45.302;-122.946;2023-06-14T11:51:40;6.47;;;1.73;;
51467;SDS011;37545;45.302;-122.946;2023-06-14T11:54:11;9.25;;;1.67;;
51467;SDS011;37545;45.302;-122.946;2023-06-14T11:56:41;5.10;;;1.60;;
51467;SDS011;37545;45.302;-122.946;2023-06-14T11:59:13;8.85;;;1.85;;
51467;SDS011;37545;45.302;-122.946;2023-06-14T12:01:42;6.18;;;1.75;;
51467;SDS011;37545;45.302;-122.946;2023-06-14T12:04:12;4.53;;;1.92;;
51467;SDS011;37545;45.302;-122.946;2023-06-14T12:06:40;5.18;;;1.25;;
51467;SDS011;37545;45.302;-122.946;2023-06-14T12:09:09;5.53;;;1.63;;
51467;SDS011;37545;45.302;-122.946;2023-06-14T12:11:44;5.28;;;1.13;;
51467;SDS011;37545;45.302;-122.946;2023-06-14T12:14:13;6.65;;;1.75;;
51467;SDS011;37545;45.302;-122.946;2023-06-14T12:16:42;10.13;;;1.65;;
51467;SDS011;37545;45.302;-122.946;2023-06-14T12:19:15;4.07;;;1.40;;
51467;SDS011;37545;45.302;-122.946;2023-06-14T12:21:46;7.85;;;1.80;;
51467;SDS011;37545;45.302;-122.946;2023-06-14T12:24:16;7.73;;;1.60;;
51467;SDS011;37545;45.302;-122.946;2023-06-14T12:26:47;3.67;;;1.00;;
51467;SDS011;37545;45.302;-122.946;2023-06-14T12:29:15;10.85;;;2.10;;
51467;SDS011;37545;45.302;-122.946;2023-06-14T12:31:46;9.07;;;1.67;;
51467;SDS011;37545;45.302;-122.946;2023-06-14T12:34:22;6.55;;;1.42;;
51467;SDS011;37545;45.302;-122.946;2023-06-14T12:36:52;7.05;;;2.22;;
51467;SDS011;37545;45.302;-122.946;2023-06-14T12:39:21;13.52;;;1.92;;
51467;SDS011;37545;45.302;-122.946;2023-06-14T12:41:51;6.75;;;2.03;;
51467;SDS011;37545;45.302;-122.946;2023-06-14T12:44:20;5.75;;;2.20;;
51467;SDS011;37545;45.302;-122.946;2023-06-14T12:46:49;9.15;;;2.05;;
51467;SDS011;37545;45.302;-122.946;2023-06-14T12:49:27;11.40;;;2.05;;
51467;SDS011;37545;45.302;-122.946;2023-06-14T12:51:56;4.15;;;1.67;;
51467;SDS011;37545;45.302;-122.946;2023-06-14T12:54:24;4.93;;;1.90;;
51467;SDS011;37545;45.302;-122.946;2023-06-14T12:56:55;9.18;;;2.53;;
51467;SDS011;37545;45.302;-122.946;2023-06-14T12:59:23;8.60;;;1.85;;
51467;SDS011;37545;45.302;-122.946;2023-06-14T13:01:58;8.70;;;2.47;;
51467;SDS011;37545;45.302;-122.946;2023-06-14T13:04:37;7.15;;;1.95;;
51467;SDS011;37545;45.302;-122.946;2023-06-14T13:07:06;4.90;;;1.83;;
51467;SDS011;37545;45.302;-122.946;2023-06-14T13:09:34;8.30;;;1.77;;
51467;SDS011;37545;45.302;-122.946;2023-06-14T13:12:05;6.20;;;1.70;;
51467;SDS011;37545;45.302;-122.946;2023-06-14T13:14:34;6.82;;;1.67;;
51467;SDS011;37545;45.302;-122.946;2023-06-14T13:17:03;4.15;;;2.00;;
51467;SDS011;37545;45.302;-122.946;2023-06-14T13:19:32;4.97;;;2.17;;
51467;SDS011;37545;45.302;-122.946;2023-06-14T13:22:00;4.35;;;1.58;;
51467;SDS011;37545;45.302;-122.946;2023-06-14T13:24:29;6.22;;;1.67;;
51467;SDS011;37545;45.302;-122.946;2023-06-14T13:26:58;10.60;;;2.38;;
51467;SDS011;37545;45.302;-122.946;2023-06-14T13:29:28;7.53;;;1.77;;
51467;SDS011;37545;45.302;-122.946;2023-06-14T13:31:58;5.05;;;1.52;;
51467;SDS011;37545;45.302;-122.946;2023-06-14T13:34:27;6.32;;;1.73;;
51467;SDS011;37545;45.302;-122.946;2023-06-14T13:36:56;4.90;;;1.95;;
51467;SDS011;37545;45.302;-122.946;2023-06-14T13:39:24;5.82;;;1.63;;
51467;SDS011;37545;45.302;-122.946;2023-06-14T13:41:53;7.18;;;1.80;;
51467;SDS011;37545;45.302;-122.946;2023-06-14T13:44:21;8.32;;;2.13;;
51467;SDS011;37545;45.302;-122.946;2023-06-14T13:46:52;3.85;;;1.52;;
51467;SDS011;37545;45.302;-122.946;2023-06-14T13:49:22;7.90;;;1.88;;
51467;SDS011;37545;45.302;-122.946;2023-06-14T13:51:50;5.15;;;1.67;;
51467;SDS011;37545;45.302;-122.946;2023-06-14T13:54:19;11.75;;;2.25;;
51467;SDS011;37545;45.302;-122.946;2023-06-14T13:56:55;4.80;;;2.08;;
51467;SDS011;37545;45.302;-122.946;2023-06-14T13:59:23;10.57;;;1.98;;
51467;SDS011;37545;45.302;-122.946;2023-06-14T14:01:54;4.05;;;1.20;;
51467;SDS011;37545;45.302;-122.946;2023-06-14T14:04:22;6.95;;;1.85;;
51467;SDS011;37545;45.302;-122.946;2023-06-14T14:06:50;5.22;;;1.92;;
51467;SDS011;37545;45.302;-122.946;2023-06-14T14:09:19;5.55;;;1.88;;
51467;SDS011;37545;45.302;-122.946;2023-06-14T14:11:47;6.97;;;1.98;;
51467;SDS011;37545;45.302;-122.946;2023-06-14T14:14:16;9.15;;;1.70;;
51467;SDS011;37545;45.302;-122.946;2023-06-14T14:16:45;8.10;;;1.48;;
51467;SDS011;37545;45.302;-122.946;2023-06-14T14:19:18;4.88;;;1.45;;
51467;SDS011;37545;45.302;-122.946;2023-06-14T14:21:47;8.43;;;1.67;;
51467;SDS011;37545;45.302;-122.946;2023-06-14T14:24:16;7.53;;;1.90;;
51467;SDS011;37545;45.302;-122.946;2023-06-14T14:26:44;10.05;;;2.30;;
51467;SDS011;37545;45.302;-122.946;2023-06-14T14:29:18;8.93;;;1.58;;
51467;SDS011;37545;45.302;-122.946;2023-06-14T14:31:46;10.75;;;2.63;;
51467;SDS011;37545;45.302;-122.946;2023-06-14T14:34:23;12.02;;;2.58;;
51467;SDS011;37545;45.302;-122.946;2023-06-14T14:39:21;7.97;;;1.42;;
51467;SDS011;37545;45.302;-122.946;2023-06-14T14:41:50;10.18;;;2.25;;
51467;SDS011;37545;45.302;-122.946;2023-06-14T14:44:19;7.63;;;1.73;;